sensor_id;sensor_type;location;lat;lon;timestamp;pressure;altitude;pressure_sealevel;temperature;humidity
35291;BME280;21411;50.024;19.220;2023-02-18T00:00:26;98610.67;;;10.30;100.00
35291;BME280;21411;50.024;19.220;2023-02-18T00:03:13;98603.50;;;10.25;100.00
35291;BME280;21411;50.024;19.220;2023-02-18T00:05:39;98600.00;;;10.22;100.00
35291;BME280;21411;50.024;19.220;2023-02-18T00:08:06;98601.81;;;10.19;100.00
35291;BME280;21411;50.024;19.220;2023-02-18T00:10:32;98609.06;;;10.14;100.00
35291;BME280;21411;50.024;19.220;2023-02-18T00:12:59;98609.55;;;10.10;100.00
35291;BME280;21411;50.024;19.220;2023-02-18T00:15:26;98608.20;;;10.06;100.00
35291;BME280;21411;50.024;19.220;2023-02-18T00:17:53;98606.74;;;10.05;100.00
35291;BME280;21411;50.024;19.220;2023-02-18T00:20:20;98613.23;;;10.03;100.00
35291;BME280;21411;50.024;19.220;2023-02-18T00:22:46;98610.26;;;10.02;100.00
35291;BME280;21411;50.024;19.220;2023-02-18T00:25:13;98615.80;;;10.02;100.00
35291;BME280;21411;50.024;19.220;2023-02-18T00:27:39;98613.84;;;10.02;100.00
35291;BME280;21411;50.024;19.220;2023-02-18T00:30:07;98617.51;;;10.03;100.00
35291;BME280;21411;50.024;19.220;2023-02-18T00:32:34;98620.10;;;10.04;100.00
35291;BME280;21411;50.024;19.220;2023-02-18T00:35:01;98619.65;;;10.05;100.00
35291;BME280;21411;50.024;19.220;2023-02-18T00:37:27;98611.41;;;10.06;100.00
35291;BME280;21411;50.024;19.220;2023-02-18T00:39:54;98611.60;;;10.08;100.00
35291;BME280;21411;50.024;19.220;2023-02-18T00:42:20;98613.17;;;10.12;100.00
35291;BME280;21411;50.024;19.220;2023-02-18T00:44:48;98608.97;;;10.13;100.00
35291;BME280;21411;50.024;19.220;2023-02-18T00:47:15;98605.66;;;10.15;100.00
35291;BME280;21411;50.024;19.220;2023-02-18T00:49:41;98606.60;;;10.17;100.00
35291;BME280;21411;50.024;19.220;2023-02-18T00:52:08;98608.78;;;10.18;100.00
35291;BME280;21411;50.024;19.220;2023-02-18T00:54:34;98612.07;;;10.20;100.00
35291;BME280;21411;50.024;19.220;2023-02-18T00:57:01;98621.56;;;10.21;100.00
35291;BME280;21411;50.024;19.220;2023-02-18T00:59:28;98628.23;;;10.22;100.00
35291;BME280;21411;50.024;19.220;2023-02-18T01:01:55;98626.13;;;10.22;100.00
35291;BME280;21411;50.024;19.220;2023-02-18T01:04:21;98630.95;;;10.21;100.00
35291;BME280;21411;50.024;19.220;2023-02-18T01:06:48;98641.42;;;10.21;100.00
35291;BME280;21411;50.024;19.220;2023-02-18T01:09:14;98641.16;;;10.22;100.00
35291;BME280;21411;50.024;19.220;2023-02-18T01:11:41;98647.22;;;10.22;100.00
35291;BME280;21411;50.024;19.220;2023-02-18T01:14:08;98660.08;;;10.21;100.00
35291;BME280;21411;50.024;19.220;2023-02-18T01:16:34;98676.20;;;10.17;100.00
35291;BME280;21411;50.024;19.220;2023-02-18T01:19:01;98698.41;;;10.11;100.00
35291;BME280;21411;50.024;19.220;2023-02-18T01:21:27;98701.31;;;10.08;100.00
35291;BME280;21411;50.024;19.220;2023-02-18T01:23:54;98713.45;;;10.01;100.00
35291;BME280;21411;50.024;19.220;2023-02-18T01:26:21;98725.69;;;9.83;100.00
35291;BME280;21411;50.024;19.220;2023-02-18T01:28:47;98726.02;;;9.63;100.00
35291;BME280;21411;50.024;19.220;2023-02-18T01:31:14;98720.70;;;9.47;100.00
35291;BME280;21411;50.024;19.220;2023-02-18T01:33:41;98732.09;;;9.33;100.00
35291;BME280;21411;50.024;19.220;2023-02-18T01:36:09;98733.58;;;9.21;100.00
35291;BME280;21411;50.024;19.220;2023-02-18T01:38:36;98729.42;;;9.12;100.00
35291;BME280;21411;50.024;19.220;2023-02-18T01:41:04;98731.13;;;9.05;100.00
35291;BME280;21411;50.024;19.220;2023-02-18T01:43:31;98734.20;;;8.98;100.00
35291;BME280;21411;50.024;19.220;2023-02-18T01:46:17;98740.48;;;8.94;100.00
35291;BME280;21411;50.024;19.220;2023-02-18T01:48:53;98742.76;;;8.92;100.00
35291;BME280;21411;50.024;19.220;2023-02-18T01:54:26;98748.67;;;8.88;100.00
35291;BME280;21411;50.024;19.220;2023-02-18T01:59:32;98759.62;;;8.89;100.00
35291;BME280;21411;50.024;19.220;2023-02-18T02:02:00;98761.74;;;8.89;100.00
35291;BME280;21411;50.024;19.220;2023-02-18T02:04:27;98753.65;;;8.88;100.00
35291;BME280;21411;50.024;19.220;2023-02-18T02:06:53;98756.69;;;8.87;100.00
35291;BME280;21411;50.024;19.220;2023-02-18T02:09:23;98750.73;;;8.86;100.00
35291;BME280;21411;50.024;19.220;2023-02-18T02:28:33;98751.39;;;8.45;100.00
35291;BME280;21411;50.024;19.220;2023-02-18T02:31:26;98749.64;;;8.41;100.00
35291;BME280;21411;50.024;19.220;2023-02-18T02:36:45;98747.69;;;8.29;100.00
35291;BME280;21411;50.024;19.220;2023-02-18T02:39:50;98745.00;;;8.24;100.00
35291;BME280;21411;50.024;19.220;2023-02-18T02:48:31;98745.98;;;8.05;100.00
35291;BME280;21411;50.024;19.220;2023-02-18T02:51:17;98744.84;;;8.01;100.00
35291;BME280;21411;50.024;19.220;2023-02-18T02:53:45;98749.64;;;7.98;100.00
35291;BME280;21411;50.024;19.220;2023-02-18T02:56:17;98755.77;;;7.93;100.00
35291;BME280;21411;50.024;19.220;2023-02-18T02:58:48;98756.09;;;7.87;100.00
35291;BME280;21411;50.024;19.220;2023-02-18T03:01:19;98760.27;;;7.82;100.00
35291;BME280;21411;50.024;19.220;2023-02-18T03:04:12;98762.20;;;7.80;100.00
35291;BME280;21411;50.024;19.220;2023-02-18T03:06:56;98761.34;;;7.82;100.00
35291;BME280;21411;50.024;19.220;2023-02-18T03:14:50;98757.73;;;7.95;100.00
35291;BME280;21411;50.024;19.220;2023-02-18T03:17:29;98757.67;;;7.99;100.00
35291;BME280;21411;50.024;19.220;2023-02-18T03:22:35;98757.55;;;8.01;100.00
35291;BME280;21411;50.024;19.220;2023-02-18T03:25:03;98761.29;;;8.01;100.00
35291;BME280;21411;50.024;19.220;2023-02-18T03:27:34;98762.31;;;8.02;100.00
35291;BME280;21411;50.024;19.220;2023-02-18T03:32:30;98769.84;;;8.06;100.00
35291;BME280;21411;50.024;19.220;2023-02-18T03:35:09;98772.92;;;8.07;100.00
35291;BME280;21411;50.024;19.220;2023-02-18T03:37:40;98776.73;;;8.09;100.00
35291;BME280;21411;50.024;19.220;2023-02-18T03:40:09;98778.63;;;8.10;100.00
35291;BME280;21411;50.024;19.220;2023-02-18T03:42:36;98782.55;;;8.15;100.00
35291;BME280;21411;50.024;19.220;2023-02-18T03:45:03;98785.96;;;8.20;100.00
35291;BME280;21411;50.024;19.220;2023-02-18T03:47:30;98794.83;;;8.23;100.00
35291;BME280;21411;50.024;19.220;2023-02-18T03:49:57;98798.27;;;8.24;100.00
35291;BME280;21411;50.024;19.220;2023-02-18T03:52:23;98795.90;;;8.22;100.00
35291;BME280;21411;50.024;19.220;2023-02-18T03:54:50;98796.86;;;8.18;100.00
35291;BME280;21411;50.024;19.220;2023-02-18T03:57:17;98794.42;;;8.11;100.00
35291;BME280;21411;50.024;19.220;2023-02-18T03:59:44;98796.55;;;8.06;100.00
35291;BME280;21411;50.024;19.220;2023-02-18T04:02:11;98798.27;;;8.01;100.00
35291;BME280;21411;50.024;19.220;2023-02-18T04:04:37;98791.11;;;7.99;100.00
35291;BME280;21411;50.024;19.220;2023-02-18T04:07:04;98793.11;;;8.04;100.00
35291;BME280;21411;50.024;19.220;2023-02-18T04:09:30;98800.67;;;8.08;100.00
35291;BME280;21411;50.024;19.220;2023-02-18T04:11:57;98803.37;;;8.07;100.00
35291;BME280;21411;50.024;19.220;2023-02-18T04:14:24;98807.61;;;8.10;100.00
35291;BME280;21411;50.024;19.220;2023-02-18T04:16:50;98812.73;;;8.16;100.00
35291;BME280;21411;50.024;19.220;2023-02-18T04:19:17;98819.64;;;8.16;100.00
35291;BME280;21411;50.024;19.220;2023-02-18T04:21:43;98824.79;;;8.16;100.00
35291;BME280;21411;50.024;19.220;2023-02-18T04:24:10;98826.35;;;8.14;100.00
35291;BME280;21411;50.024;19.220;2023-02-18T04:26:36;98836.79;;;8.08;100.00
35291;BME280;21411;50.024;19.220;2023-02-18T04:29:03;98833.40;;;8.05;100.00
35291;BME280;21411;50.024;19.220;2023-02-18T04:31:30;98835.00;;;8.02;100.00
35291;BME280;21411;50.024;19.220;2023-02-18T04:33:56;98834.77;;;8.00;100.00
35291;BME280;21411;50.024;19.220;2023-02-18T04:36:23;98839.13;;;7.98;100.00
35291;BME280;21411;50.024;19.220;2023-02-18T04:38:50;98838.59;;;7.95;100.00
35291;BME280;21411;50.024;19.220;2023-02-18T04:41:16;98840.77;;;7.91;100.00
35291;BME280;21411;50.024;19.220;2023-02-18T04:43:43;98839.54;;;7.85;100.00
35291;BME280;21411;50.024;19.220;2023-02-18T04:46:09;98836.13;;;7.77;100.00
35291;BME280;21411;50.024;19.220;2023-02-18T04:48:36;98835.33;;;7.69;100.00
35291;BME280;21411;50.024;19.220;2023-02-18T04:51:03;98838.63;;;7.61;100.00
35291;BME280;21411;50.024;19.220;2023-02-18T04:53:30;98844.77;;;7.56;100.00
35291;BME280;21411;50.024;19.220;2023-02-18T04:55:56;98851.58;;;7.54;100.00
35291;BME280;21411;50.024;19.220;2023-02-18T04:58:23;98855.85;;;7.57;100.00
35291;BME280;21411;50.024;19.220;2023-02-18T05:00:50;98851.27;;;7.62;100.00
35291;BME280;21411;50.024;19.220;2023-02-18T05:03:18;98850.09;;;7.64;100.00
35291;BME280;21411;50.024;19.220;2023-02-18T05:05:45;98853.48;;;7.64;100.00
35291;BME280;21411;50.024;19.220;2023-02-18T05:08:11;98857.33;;;7.61;100.00
35291;BME280;21411;50.024;19.220;2023-02-18T05:10:38;98853.87;;;7.63;100.00
35291;BME280;21411;50.024;19.220;2023-02-18T05:13:05;98856.29;;;7.61;100.00
35291;BME280;21411;50.024;19.220;2023-02-18T05:15:32;98855.63;;;7.57;100.00
35291;BME280;21411;50.024;19.220;2023-02-18T05:17:58;98857.20;;;7.58;100.00
35291;BME280;21411;50.024;19.220;2023-02-18T05:20:25;98856.25;;;7.59;100.00
35291;BME280;21411;50.024;19.220;2023-02-18T05:22:51;98853.11;;;7.55;100.00
35291;BME280;21411;50.024;19.220;2023-02-18T05:25:18;98851.79;;;7.50;100.00
35291;BME280;21411;50.024;19.220;2023-02-18T05:27:45;98858.31;;;7.44;100.00
35291;BME280;21411;50.024;19.220;2023-02-18T05:30:12;98863.33;;;7.40;100.00
35291;BME280;21411;50.024;19.220;2023-02-18T05:32:38;98864.42;;;7.36;100.00
35291;BME280;21411;50.024;19.220;2023-02-18T05:35:05;98865.11;;;7.30;100.00
35291;BME280;21411;50.024;19.220;2023-02-18T05:37:32;98866.45;;;7.22;100.00
35291;BME280;21411;50.024;19.220;2023-02-18T05:39:59;98872.28;;;7.19;100.00
35291;BME280;21411;50.024;19.220;2023-02-18T05:42:26;98865.28;;;7.24;100.00
35291;BME280;21411;50.024;19.220;2023-02-18T05:44:52;98862.52;;;7.32;100.00
35291;BME280;21411;50.024;19.220;2023-02-18T05:47:19;98862.30;;;7.36;100.00
35291;BME280;21411;50.024;19.220;2023-02-18T05:49:45;98868.89;;;7.41;100.00
35291;BME280;21411;50.024;19.220;2023-02-18T05:52:12;98873.09;;;7.42;100.00
35291;BME280;21411;50.024;19.220;2023-02-18T05:54:39;98876.21;;;7.37;100.00
35291;BME280;21411;50.024;19.220;2023-02-18T05:57:05;98878.41;;;7.35;100.00
35291;BME280;21411;50.024;19.220;2023-02-18T05:59:32;98880.73;;;7.35;100.00
35291;BME280;21411;50.024;19.220;2023-02-18T06:01:59;98885.80;;;7.40;100.00
35291;BME280;21411;50.024;19.220;2023-02-18T06:04:26;98888.42;;;7.46;100.00
35291;BME280;21411;50.024;19.220;2023-02-18T06:06:53;98891.86;;;7.51;100.00
35291;BME280;21411;50.024;19.220;2023-02-18T06:09:20;98892.98;;;7.56;100.00
35291;BME280;21411;50.024;19.220;2023-02-18T06:11:47;98891.80;;;7.65;100.00
35291;BME280;21411;50.024;19.220;2023-02-18T06:14:14;98890.42;;;7.67;100.00
35291;BME280;21411;50.024;19.220;2023-02-18T06:16:40;98890.51;;;7.69;100.00
35291;BME280;21411;50.024;19.220;2023-02-18T06:19:07;98889.45;;;7.72;100.00
35291;BME280;21411;50.024;19.220;2023-02-18T06:21:34;98891.92;;;7.75;100.00
35291;BME280;21411;50.024;19.220;2023-02-18T06:24:00;98896.84;;;7.82;100.00
35291;BME280;21411;50.024;19.220;2023-02-18T06:26:27;98890.49;;;7.97;100.00
35291;BME280;21411;50.024;19.220;2023-02-18T06:28:53;98883.40;;;8.06;100.00
35291;BME280;21411;50.024;19.220;2023-02-18T06:31:20;98886.30;;;8.14;100.00
35291;BME280;21411;50.024;19.220;2023-02-18T06:33:47;98887.23;;;8.20;100.00
35291;BME280;21411;50.024;19.220;2023-02-18T06:36:14;98889.05;;;8.25;100.00
35291;BME280;21411;50.024;19.220;2023-02-18T06:38:42;98885.73;;;8.27;100.00
35291;BME280;21411;50.024;19.220;2023-02-18T06:41:11;98894.41;;;8.27;100.00
35291;BME280;21411;50.024;19.220;2023-02-18T06:43:39;98898.11;;;8.27;100.00
35291;BME280;21411;50.024;19.220;2023-02-18T06:46:06;98900.23;;;8.27;100.00
35291;BME280;21411;50.024;19.220;2023-02-18T06:48:33;98900.66;;;8.29;100.00
35291;BME280;21411;50.024;19.220;2023-02-18T06:50:59;98900.67;;;8.31;100.00
35291;BME280;21411;50.024;19.220;2023-02-18T06:53:26;98901.72;;;8.38;100.00
35291;BME280;21411;50.024;19.220;2023-02-18T06:55:53;98898.36;;;8.47;100.00
35291;BME280;21411;50.024;19.220;2023-02-18T06:58:19;98901.21;;;8.56;100.00
35291;BME280;21411;50.024;19.220;2023-02-18T07:00:46;98906.48;;;8.63;100.00
35291;BME280;21411;50.024;19.220;2023-02-18T07:03:13;98907.07;;;8.65;100.00
35291;BME280;21411;50.024;19.220;2023-02-18T07:05:43;98912.29;;;8.69;100.00
35291;BME280;21411;50.024;19.220;2023-02-18T07:08:10;98911.55;;;8.75;100.00
35291;BME280;21411;50.024;19.220;2023-02-18T07:10:36;98917.05;;;8.81;100.00
35291;BME280;21411;50.024;19.220;2023-02-18T07:13:04;98915.53;;;8.85;100.00
35291;BME280;21411;50.024;19.220;2023-02-18T07:15:30;98915.46;;;8.90;100.00
35291;BME280;21411;50.024;19.220;2023-02-18T07:17:57;98906.48;;;8.94;100.00
35291;BME280;21411;50.024;19.220;2023-02-18T07:20:24;98910.70;;;8.97;100.00
35291;BME280;21411;50.024;19.220;2023-02-18T07:22:52;98919.44;;;8.99;100.00
35291;BME280;21411;50.024;19.220;2023-02-18T07:25:19;98916.18;;;9.01;100.00
35291;BME280;21411;50.024;19.220;2023-02-18T07:27:46;98909.17;;;9.03;100.00
35291;BME280;21411;50.024;19.220;2023-02-18T07:30:13;98910.93;;;9.03;100.00
35291;BME280;21411;50.024;19.220;2023-02-18T07:32:40;98911.98;;;9.03;100.00
35291;BME280;21411;50.024;19.220;2023-02-18T07:35:06;98915.10;;;9.04;100.00
35291;BME280;21411;50.024;19.220;2023-02-18T07:37:33;98913.58;;;9.06;100.00
35291;BME280;21411;50.024;19.220;2023-02-18T07:39:59;98913.46;;;9.07;100.00
35291;BME280;21411;50.024;19.220;2023-02-18T07:42:26;98908.44;;;9.09;100.00
35291;BME280;21411;50.024;19.220;2023-02-18T07:44:53;98915.46;;;9.09;100.00
35291;BME280;21411;50.024;19.220;2023-02-18T07:47:19;98913.42;;;9.11;100.00
35291;BME280;21411;50.024;19.220;2023-02-18T07:49:46;98918.77;;;9.13;100.00
35291;BME280;21411;50.024;19.220;2023-02-18T07:52:14;98916.52;;;9.15;100.00
35291;BME280;21411;50.024;19.220;2023-02-18T07:54:41;98917.98;;;9.17;100.00
35291;BME280;21411;50.024;19.220;2023-02-18T07:57:08;98922.56;;;9.18;99.20
35291;BME280;21411;50.024;19.220;2023-02-18T07:59:35;98917.91;;;9.18;97.40
35291;BME280;21411;50.024;19.220;2023-02-18T08:02:03;98919.73;;;9.20;90.93
35291;BME280;21411;50.024;19.220;2023-02-18T08:04:30;98928.55;;;9.25;84.32
35291;BME280;21411;50.024;19.220;2023-02-18T08:06:57;98930.67;;;9.28;83.26
35291;BME280;21411;50.024;19.220;2023-02-18T08:09:24;98931.41;;;9.30;83.00
35291;BME280;21411;50.024;19.220;2023-02-18T08:11:50;98932.44;;;9.30;81.50
35291;BME280;21411;50.024;19.220;2023-02-18T08:14:17;98934.20;;;9.30;78.14
35291;BME280;21411;50.024;19.220;2023-02-18T08:16:44;98930.40;;;9.32;76.71
35291;BME280;21411;50.024;19.220;2023-02-18T08:19:10;98925.85;;;9.33;73.54
35291;BME280;21411;50.024;19.220;2023-02-18T08:21:37;98925.63;;;9.37;73.01
35291;BME280;21411;50.024;19.220;2023-02-18T08:24:04;98920.85;;;9.39;73.22
35291;BME280;21411;50.024;19.220;2023-02-18T08:26:31;98923.35;;;9.36;72.47
35291;BME280;21411;50.024;19.220;2023-02-18T08:28:57;98921.38;;;9.34;73.06
35291;BME280;21411;50.024;19.220;2023-02-18T08:31:27;98926.55;;;9.34;73.44
35291;BME280;21411;50.024;19.220;2023-02-18T08:33:55;98928.67;;;9.34;72.01
35291;BME280;21411;50.024;19.220;2023-02-18T08:36:22;98926.73;;;9.34;71.40
35291;BME280;21411;50.024;19.220;2023-02-18T08:38:49;98922.92;;;9.35;72.58
35291;BME280;21411;50.024;19.220;2023-02-18T08:41:16;98925.48;;;9.34;71.45
35291;BME280;21411;50.024;19.220;2023-02-18T08:43:46;98924.46;;;9.33;71.07
35291;BME280;21411;50.024;19.220;2023-02-18T08:46:14;98927.80;;;9.33;70.17
35291;BME280;21411;50.024;19.220;2023-02-18T08:48:42;98925.85;;;9.36;71.08
35291;BME280;21411;50.024;19.220;2023-02-18T08:51:11;98924.20;;;9.37;70.98
35291;BME280;21411;50.024;19.220;2023-02-18T08:53:38;98912.20;;;9.39;70.51
35291;BME280;21411;50.024;19.220;2023-02-18T08:56:06;98916.52;;;9.41;71.25
35291;BME280;21411;50.024;19.220;2023-02-18T08:58:33;98916.70;;;9.41;71.85
35291;BME280;21411;50.024;19.220;2023-02-18T09:01:08;98919.87;;;9.41;70.79
35291;BME280;21411;50.024;19.220;2023-02-18T09:03:35;98911.45;;;9.42;71.77
35291;BME280;21411;50.024;19.220;2023-02-18T09:06:03;98910.38;;;9.42;72.18
35291;BME280;21411;50.024;19.220;2023-02-18T09:08:30;98907.81;;;9.43;71.97
35291;BME280;21411;50.024;19.220;2023-02-18T09:10:58;98916.14;;;9.47;73.22
35291;BME280;21411;50.024;19.220;2023-02-18T09:13:26;98917.84;;;9.51;74.33
35291;BME280;21411;50.024;19.220;2023-02-18T09:15:57;98911.85;;;9.53;73.94
35291;BME280;21411;50.024;19.220;2023-02-18T09:18:24;98910.58;;;9.53;73.73
35291;BME280;21411;50.024;19.220;2023-02-18T09:20:54;98918.73;;;9.54;73.40
35291;BME280;21411;50.024;19.220;2023-02-18T09:23:22;98920.87;;;9.53;72.81
35291;BME280;21411;50.024;19.220;2023-02-18T09:25:48;98916.07;;;9.54;72.28
35291;BME280;21411;50.024;19.220;2023-02-18T09:28:15;98916.45;;;9.53;71.30
35291;BME280;21411;50.024;19.220;2023-02-18T09:30:41;98915.89;;;9.54;71.84
35291;BME280;21411;50.024;19.220;2023-02-18T09:33:08;98914.11;;;9.54;71.60
35291;BME280;21411;50.024;19.220;2023-02-18T09:35:39;98917.60;;;9.54;70.98
35291;BME280;21411;50.024;19.220;2023-02-18T09:38:08;98917.60;;;9.57;72.07
35291;BME280;21411;50.024;19.220;2023-02-18T09:40:39;98918.86;;;9.62;71.94
35291;BME280;21411;50.024;19.220;2023-02-18T09:46:04;98912.89;;;9.78;73.08
35291;BME280;21411;50.024;19.220;2023-02-18T09:48:39;98914.27;;;9.92;74.13
35291;BME280;21411;50.024;19.220;2023-02-18T09:51:12;98913.13;;;10.09;73.99
35291;BME280;21411;50.024;19.220;2023-02-18T09:53:41;98899.80;;;10.20;73.57
35291;BME280;21411;50.024;19.220;2023-02-18T09:56:13;98894.95;;;10.26;72.99
35291;BME280;21411;50.024;19.220;2023-02-18T09:58:42;98887.42;;;10.38;73.09
35291;BME280;21411;50.024;19.220;2023-02-18T10:01:24;98880.14;;;10.49;72.58
35291;BME280;21411;50.024;19.220;2023-02-18T10:03:57;98879.20;;;10.47;71.85
35291;BME280;21411;50.024;19.220;2023-02-18T10:06:29;98876.18;;;10.39;71.50
35291;BME280;21411;50.024;19.220;2023-02-18T10:09:02;98868.20;;;10.29;68.24
35291;BME280;21411;50.024;19.220;2023-02-18T10:11:34;98865.91;;;10.17;66.62
35291;BME280;21411;50.024;19.220;2023-02-18T10:14:10;98875.29;;;10.10;67.25
35291;BME280;21411;50.024;19.220;2023-02-18T10:16:37;98867.66;;;10.05;66.57
35291;BME280;21411;50.024;19.220;2023-02-18T10:21:47;98877.18;;;9.98;67.97
35291;BME280;21411;50.024;19.220;2023-02-18T10:24:34;98869.23;;;9.92;65.31
35291;BME280;21411;50.024;19.220;2023-02-18T10:27:05;98869.02;;;9.90;64.57
35291;BME280;21411;50.024;19.220;2023-02-18T10:29:32;98878.29;;;9.92;65.51
35291;BME280;21411;50.024;19.220;2023-02-18T10:32:35;98876.23;;;9.91;65.59
35291;BME280;21411;50.024;19.220;2023-02-18T10:41:13;98884.36;;;9.75;67.36
35291;BME280;21411;50.024;19.220;2023-02-18T10:44:02;98886.55;;;9.71;68.56
35291;BME280;21411;50.024;19.220;2023-02-18T10:51:56;98884.85;;;9.40;70.97
35291;BME280;21411;50.024;19.220;2023-02-18T10:54:25;98879.30;;;9.26;73.07
35291;BME280;21411;50.024;19.220;2023-02-18T10:56:58;98880.16;;;9.16;75.44
35291;BME280;21411;50.024;19.220;2023-02-18T10:59:31;98879.37;;;8.97;77.75
35291;BME280;21411;50.024;19.220;2023-02-18T11:02:02;98877.84;;;8.82;80.41
35291;BME280;21411;50.024;19.220;2023-02-18T11:04:43;98876.87;;;8.69;83.92
35291;BME280;21411;50.024;19.220;2023-02-18T11:07:18;98874.43;;;8.56;85.92
35291;BME280;21411;50.024;19.220;2023-02-18T11:10:13;98875.70;;;8.47;88.17
35291;BME280;21411;50.024;19.220;2023-02-18T11:12:46;98879.14;;;8.43;91.73
35291;BME280;21411;50.024;19.220;2023-02-18T11:17:42;98879.51;;;8.30;97.21
35291;BME280;21411;50.024;19.220;2023-02-18T11:22:49;98873.96;;;8.19;100.00
35291;BME280;21411;50.024;19.220;2023-02-18T11:25:25;98870.23;;;8.11;100.00
35291;BME280;21411;50.024;19.220;2023-02-18T11:27:57;98856.06;;;8.02;100.00
35291;BME280;21411;50.024;19.220;2023-02-18T11:30:30;98854.02;;;7.95;100.00
35291;BME280;21411;50.024;19.220;2023-02-18T11:33:03;98847.56;;;7.87;100.00
35291;BME280;21411;50.024;19.220;2023-02-18T11:35:32;98841.80;;;7.82;100.00
35291;BME280;21411;50.024;19.220;2023-02-18T11:38:01;98837.38;;;7.82;100.00
35291;BME280;21411;50.024;19.220;2023-02-18T11:40:34;98832.24;;;7.85;100.00
35291;BME280;21411;50.024;19.220;2023-02-18T11:43:13;98822.30;;;7.89;100.00
35291;BME280;21411;50.024;19.220;2023-02-18T11:45:41;98815.52;;;7.96;100.00
35291;BME280;21411;50.024;19.220;2023-02-18T11:48:15;98807.72;;;7.97;100.00
35291;BME280;21411;50.024;19.220;2023-02-18T11:50:44;98794.09;;;7.88;100.00
35291;BME280;21411;50.024;19.220;2023-02-18T11:53:33;98797.39;;;7.79;100.00
35291;BME280;21411;50.024;19.220;2023-02-18T11:56:05;98794.30;;;7.72;100.00
35291;BME280;21411;50.024;19.220;2023-02-18T11:58:42;98790.92;;;7.60;100.00
35291;BME280;21411;50.024;19.220;2023-02-18T12:01:14;98791.20;;;7.56;100.00
35291;BME280;21411;50.024;19.220;2023-02-18T12:03:53;98781.30;;;7.55;100.00
35291;BME280;21411;50.024;19.220;2023-02-18T12:09:37;98765.27;;;7.54;100.00
35291;BME280;21411;50.024;19.220;2023-02-18T12:12:45;98754.67;;;7.57;100.00
35291;BME280;21411;50.024;19.220;2023-02-18T12:15:17;98742.96;;;7.67;100.00
35291;BME280;21411;50.024;19.220;2023-02-18T12:28:39;98719.98;;;7.79;100.00
35291;BME280;21411;50.024;19.220;2023-02-18T12:34:00;98710.12;;;7.66;100.00
35291;BME280;21411;50.024;19.220;2023-02-18T12:36:54;98701.15;;;7.60;100.00
35291;BME280;21411;50.024;19.220;2023-02-18T12:39:54;98694.48;;;7.56;100.00
35291;BME280;21411;50.024;19.220;2023-02-18T12:56:32;98649.62;;;7.55;100.00
35291;BME280;21411;50.024;19.220;2023-02-18T13:12:47;98604.68;;;7.47;100.00
35291;BME280;21411;50.024;19.220;2023-02-18T13:17:56;98600.83;;;7.43;100.00
35291;BME280;21411;50.024;19.220;2023-02-18T13:20:39;98600.48;;;7.43;100.00
35291;BME280;21411;50.024;19.220;2023-02-18T13:23:20;98589.06;;;7.42;100.00
35291;BME280;21411;50.024;19.220;2023-02-18T13:25:52;98580.88;;;7.43;100.00
35291;BME280;21411;50.024;19.220;2023-02-18T13:31:27;98571.15;;;7.40;100.00
35291;BME280;21411;50.024;19.220;2023-02-18T13:39:47;98534.82;;;7.33;100.00
35291;BME280;21411;50.024;19.220;2023-02-18T13:47:40;98512.70;;;7.42;100.00
35291;BME280;21411;50.024;19.220;2023-02-18T13:52:41;98501.85;;;7.46;100.00
35291;BME280;21411;50.024;19.220;2023-02-18T13:55:19;98499.60;;;7.48;100.00
35291;BME280;21411;50.024;19.220;2023-02-18T13:57:47;98486.87;;;7.51;100.00
35291;BME280;21411;50.024;19.220;2023-02-18T14:00:21;98478.31;;;7.55;100.00
35291;BME280;21411;50.024;19.220;2023-02-18T14:03:00;98476.96;;;7.54;100.00
35291;BME280;21411;50.024;19.220;2023-02-18T14:05:39;98466.48;;;7.55;100.00
35291;BME280;21411;50.024;19.220;2023-02-18T14:08:13;98455.56;;;7.57;100.00
35291;BME280;21411;50.024;19.220;2023-02-18T14:10:40;98456.95;;;7.58;100.00
35291;BME280;21411;50.024;19.220;2023-02-18T14:13:20;98459.27;;;7.55;100.00
35291;BME280;21411;50.024;19.220;2023-02-18T14:18:32;98440.61;;;7.51;100.00
35291;BME280;21411;50.024;19.220;2023-02-18T14:23:55;98423.81;;;7.51;100.00
35291;BME280;21411;50.024;19.220;2023-02-18T14:26:28;98420.55;;;7.52;100.00
35291;BME280;21411;50.024;19.220;2023-02-18T14:28:59;98414.63;;;7.51;100.00
35291;BME280;21411;50.024;19.220;2023-02-18T14:31:50;98406.92;;;7.52;100.00
35291;BME280;21411;50.024;19.220;2023-02-18T14:51:14;98362.48;;;7.42;100.00
35291;BME280;21411;50.024;19.220;2023-02-18T14:53:43;98358.55;;;7.43;100.00
35291;BME280;21411;50.024;19.220;2023-02-18T14:56:13;98356.34;;;7.44;100.00
35291;BME280;21411;50.024;19.220;2023-02-18T14:58:45;98352.27;;;7.47;100.00
35291;BME280;21411;50.024;19.220;2023-02-18T15:01:24;98348.71;;;7.44;100.00
35291;BME280;21411;50.024;19.220;2023-02-18T15:03:52;98339.45;;;7.43;100.00
35291;BME280;21411;50.024;19.220;2023-02-18T15:06:30;98336.23;;;7.41;100.00
35291;BME280;21411;50.024;19.220;2023-02-18T15:08:59;98331.83;;;7.38;100.00
35291;BME280;21411;50.024;19.220;2023-02-18T15:11:41;98324.27;;;7.35;100.00
35291;BME280;21411;50.024;19.220;2023-02-18T15:14:15;98315.27;;;7.32;100.00
35291;BME280;21411;50.024;19.220;2023-02-18T15:16:44;98308.48;;;7.27;100.00
35291;BME280;21411;50.024;19.220;2023-02-18T15:19:15;98301.50;;;7.23;100.00
35291;BME280;21411;50.024;19.220;2023-02-18T15:21:46;98299.44;;;7.19;100.00
35291;BME280;21411;50.024;19.220;2023-02-18T15:26:48;98280.66;;;7.12;100.00
35291;BME280;21411;50.024;19.220;2023-02-18T15:29:25;98273.73;;;7.10;100.00
35291;BME280;21411;50.024;19.220;2023-02-18T15:31:54;98263.27;;;7.08;100.00
35291;BME280;21411;50.024;19.220;2023-02-18T15:36:50;98240.63;;;7.06;100.00
35291;BME280;21411;50.024;19.220;2023-02-18T15:39:17;98229.11;;;7.06;100.00